PATC

Details ICAO PATC (TNC)
Name TIN CITY LRRS
Region USA (Alaska)
Timezone America/Nome (UTC-8.0)
Plans Departing 11
Arriving 8
Stats Elevation 271 ft / 83 m (AMSL)
Location 65.564035° -167.922454°
Runways 1
Magnetic Variation 8.710° E
Sunrise 2018-05-21 13:16:54 UTC / 2018-05-21 05:16:54 Local
Sunset 2018-05-22 09:02:34 UTC / 2018-05-22 01:02:34 Local
Advertisement - Login to hide

Runways

ID Width Length Bearing (true) Bearing (mag) Surface Threshold Offset Overrun Length
16 135 ft / 41 m 4,693 ft / 1,430 m 174.59° 165.88° Gravel 0 ft / 0 m 0 ft / 0 m
34 135 ft / 41 m 4,693 ft / 1,430 m 354.59° 345.88° Gravel 0 ft / 0 m 0 ft / 0 m

Map

Weather


0- 5 10 15 20 25 30 35+ Temperature / ° C

Clouds and Precipitation
Forecast for 2018-05-22 06:00 UTC. Updated an hour ago

Ground ~20,000 ft ~40,000 ft Winds

METAR

PATC 220615Z AUTO 02024KT 1 1/4SM -SHSN BKN007 M02/M02 A2970

TAF

Not found

Frequencies

Unicom 126.20 MHz CTAF/UNICOM
Warning: Do not use this data for real-world aviation or navigation. No guarantee of current accuracy is given.